Time;durP1;ratioP1;P1;durP2;ratioP2;P2;SDS_P1;SDS_P2;PMS_P1;PMS_P2;Temp;Humidity;BMP_temperature;BMP_pressure;BME280_temperature;BME280_humidity;BME280_pressure;Samples;Min_cycle;Max_cycle;Signal;HPM_P1;HPM_P2
2022/04/07 00:00:39;;;;;;;9.80;5.10;;;;;;;18.44;29.81;94230.16;5030880;28;20794;-62
2022/04/07 00:03:06;;;;;;;8.23;5.03;;;;;;;18.44;29.71;94227.50;5031645;28;20503;-62
2022/04/07 00:05:33;;;;;;;9.57;5.90;;;;;;;18.14;30.76;94224.00;5030998;28;20440;-61
2022/04/07 00:08:00;;;;;;;8.03;5.27;;;;;;;17.93;31.04;94228.47;5031735;28;20459;-61
2022/04/07 00:10:27;;;;;;;10.47;5.30;;;;;;;18.02;30.37;94223.13;5031012;28;20443;-62
2022/04/07 00:12:54;;;;;;;8.37;5.17;;;;;;;18.06;30.93;94211.56;5031204;28;20466;-62
2022/04/07 00:15:23;;;;;;;13.57;5.70;;;;;;;18.22;30.00;94209.16;5029766;28;20901;-61
2022/04/07 00:17:50;;;;;;;8.90;5.30;;;;;;;18.34;30.00;94205.84;5031175;28;20468;-62
2022/04/07 00:20:17;;;;;;;10.17;4.70;;;;;;;18.40;30.20;94200.03;5030907;28;20491;-61
2022/04/07 00:22:44;;;;;;;8.93;5.47;;;;;;;18.32;30.58;94200.09;5031063;28;20451;-60
2022/04/07 00:25:14;;;;;;;9.83;5.70;;;;;;;18.24;30.65;94201.69;5030288;28;20506;-61
2022/04/07 00:27:41;;;;;;;8.97;5.80;;;;;;;17.76;31.46;94198.56;5031043;28;20448;-61
2022/04/07 00:30:11;;;;;;;8.90;5.63;;;;;;;18.14;30.87;94191.41;5030756;28;20424;-61
2022/04/07 00:32:45;;;;;;;14.43;6.47;;;;;;;18.05;30.62;94172.13;5031325;28;21035;-61
2022/04/07 00:35:12;;;;;;;7.70;5.47;;;;;;;18.12;31.18;94172.38;5030542;28;20448;-60
2022/04/07 00:37:39;;;;;;;11.10;6.00;;;;;;;18.01;31.57;94171.22;5030978;28;20958;-61
2022/04/07 00:40:08;;;;;;;9.87;5.80;;;;;;;18.03;31.08;94169.78;5030489;28;20483;-61
2022/04/07 00:42:46;;;;;;;8.10;5.67;;;;;;;17.98;31.38;94171.84;5030011;28;20436;-62
2022/04/07 00:45:18;;;;;;;12.97;5.50;;;;;;;17.91;31.24;94180.28;5030906;28;20482;-61
2022/04/07 00:47:46;;;;;;;9.27;5.10;;;;;;;17.86;31.07;94177.78;5030875;28;21027;-60
2022/04/07 00:50:15;;;;;;;7.80;4.53;;;;;;;17.80;30.95;94176.44;5030359;28;20432;-61
2022/04/07 00:52:49;;;;;;;7.07;4.67;;;;;;;17.94;30.51;94170.91;5030966;28;20518;-61
2022/04/07 00:55:18;;;;;;;6.87;4.40;;;;;;;17.93;30.60;94169.38;5029922;28;20448;-61
2022/04/07 00:57:46;;;;;;;7.47;4.53;;;;;;;17.62;30.98;94169.63;5030760;28;20432;-61
2022/04/07 01:00:15;;;;;;;6.40;4.27;;;;;;;17.68;30.49;94167.59;5030224;28;20893;-61
2022/04/07 01:02:42;;;;;;;7.47;4.10;;;;;;;17.79;30.74;94139.66;5028699;28;20473;-62
2022/04/07 01:05:10;;;;;;;6.40;4.43;;;;;;;17.56;31.29;94135.66;5029511;28;20444;-62
2022/04/07 01:07:39;;;;;;;7.27;4.73;;;;;;;17.75;31.50;94147.47;5031198;28;20439;-61
2022/04/07 01:10:09;;;;;;;7.23;4.30;;;;;;;16.98;32.44;94144.16;5030388;28;20448;-62
2022/04/07 01:12:36;;;;;;;6.60;4.77;;;;;;;16.88;32.46;94141.81;5030292;28;20436;-63
2022/04/07 01:15:07;;;;;;;6.20;4.33;;;;;;;17.08;31.76;94128.75;5030470;28;20486;-62
2022/04/07 01:17:35;;;;;;;8.80;4.43;;;;;;;17.22;32.28;94113.44;5030390;28;20495;-62
2022/04/07 01:20:06;;;;;;;8.97;4.60;;;;;;;17.05;32.67;94112.72;5029882;28;20515;-61
2022/04/07 01:22:40;;;;;;;5.57;4.90;;;;;;;17.08;32.94;94120.00;5030066;28;20817;-61
2022/04/07 01:25:08;;;;;;;8.10;4.73;;;;;;;16.86;33.42;94105.09;5029342;28;20523;-63
2022/04/07 01:27:35;;;;;;;8.13;4.70;;;;;;;15.37;35.69;94095.13;5030235;28;21311;-61
2022/04/07 01:30:10;;;;;;;7.90;4.87;;;;;;;16.33;33.82;94119.69;5029113;28;21359;-61
2022/04/07 01:32:45;;;;;;;7.60;4.90;;;;;;;16.48;33.75;94106.81;5029943;28;20458;-61
2022/04/07 01:35:13;;;;;;;6.20;4.60;;;;;;;16.71;33.55;94100.31;5029727;28;20439;-62
2022/04/07 01:37:46;;;;;;;4.97;4.27;;;;;;;16.87;32.58;94090.00;5030178;28;20447;-62
2022/04/07 01:40:21;;;;;;;7.97;4.50;;;;;;;16.88;32.85;94068.53;5029450;28;20471;-62
2022/04/07 01:42:50;;;;;;;7.83;4.60;;;;;;;16.94;33.03;94064.63;5030261;28;20424;-61
2022/04/07 01:45:17;;;;;;;7.10;4.83;;;;;;;17.00;33.30;94057.31;5029230;28;20523;-61
2022/04/07 01:47:45;;;;;;;8.70;4.70;;;;;;;17.00;33.30;94057.31;5029804;28;20905;-61
2022/04/07 01:50:13;;;;;;;8.70;4.73;;;;;;;16.89;33.30;94056.09;5029189;28;20475;-61
2022/04/07 01:52:45;;;;;;;6.67;4.50;;;;;;;16.89;32.97;94056.88;5029401;28;20506;-61
2022/04/07 01:55:15;;;;;;;7.33;4.57;;;;;;;16.37;33.91;94043.97;5027735;28;20452;-60
2022/04/07 01:57:44;;;;;;;7.37;4.80;;;;;;;15.74;35.02;94055.88;5029463;28;20526;-61
2022/04/07 02:00:12;;;;;;;6.80;4.77;;;;;;;16.21;34.06;94035.72;5028186;28;20484;-62
2022/04/07 02:02:40;;;;;;;9.57;4.90;;;;;;;16.51;33.79;94037.47;5029883;28;20435;-61
2022/04/07 02:05:09;;;;;;;10.07;5.10;;;;;;;16.44;34.32;94039.00;5027858;28;20452;-61
2022/04/07 02:07:38;;;;;;;7.93;4.60;;;;;;;16.45;34.17;94036.03;5029349;28;20502;-61
2022/04/07 02:10:06;;;;;;;8.90;4.97;;;;;;;16.42;34.39;94035.88;5029019;28;20506;-62
2022/04/07 02:12:37;;;;;;;7.67;4.70;;;;;;;16.50;33.79;94035.91;5029185;28;20502;-63
2022/04/07 02:15:05;;;;;;;7.17;4.67;;;;;;;16.47;33.95;94011.91;5029306;28;20459;-62
2022/04/07 02:17:32;;;;;;;6.03;4.80;;;;;;;15.40;35.85;94015.34;5029460;28;20464;-61
2022/04/07 02:20:01;;;;;;;10.67;5.20;;;;;;;15.38;35.96;94036.00;5029461;28;20479;-60
2022/04/07 02:22:28;;;;;;;15.17;5.43;;;;;;;16.00;34.60;94026.84;5029059;28;20825;-61
2022/04/07 02:24:56;;;;;;;6.80;5.33;;;;;;;16.30;34.54;94015.34;5029043;28;20462;-61
2022/04/07 02:27:23;;;;;;;11.80;5.30;;;;;;;16.37;34.82;94013.00;5029497;28;20439;-61
2022/04/07 02:29:50;;;;;;;8.80;5.37;;;;;;;16.49;34.46;94010.56;5029012;28;20523;-62
2022/04/07 02:32:18;;;;;;;13.80;5.20;;;;;;;16.62;33.96;94003.53;5029373;28;20965;-62
2022/04/07 02:34:46;;;;;;;10.70;5.37;;;;;;;16.63;34.48;93994.50;5028856;28;20439;-61
2022/04/07 02:37:13;;;;;;;9.57;5.10;;;;;;;16.65;33.85;93998.41;5029008;28;20452;-62
2022/04/07 02:39:40;;;;;;;17.13;5.60;;;;;;;16.60;33.99;94022.38;5028654;28;20562;-62
2022/04/07 02:42:07;;;;;;;13.67;5.60;;;;;;;16.41;34.16;94011.31;5028963;28;20439;-61
2022/04/07 02:44:34;;;;;;;16.40;5.90;;;;;;;16.44;34.72;94000.09;5028456;28;21294;-62
2022/04/07 02:47:00;;;;;;;12.60;5.33;;;;;;;16.51;34.97;93976.66;5029301;28;20431;-62
2022/04/07 02:49:27;;;;;;;13.87;5.83;;;;;;;16.45;35.22;93977.84;5028838;28;20798;-62
2022/04/07 02:51:54;;;;;;;9.47;5.40;;;;;;;16.40;34.66;93983.31;5028622;28;20470;-62
2022/04/07 02:54:21;;;;;;;10.13;4.73;;;;;;;16.45;34.34;93992.94;5028291;28;20455;-62
2022/04/07 02:56:49;;;;;;;10.80;5.70;;;;;;;16.19;35.33;93975.25;5029394;28;20506;-62
2022/04/07 02:59:17;;;;;;;12.67;5.47;;;;;;;16.44;34.98;93967.59;5028186;28;20522;-62
2022/04/07 03:01:45;;;;;;;8.53;5.30;;;;;;;16.37;34.79;93981.28;5028391;28;20447;-62
2022/04/07 03:04:13;;;;;;;11.70;4.60;;;;;;;16.56;33.97;93957.97;5028226;28;20452;-62
2022/04/07 03:06:40;;;;;;;10.87;4.53;;;;;;;16.51;35.02;93934.34;5030876;28;20440;-61
2022/04/07 03:09:06;;;;;;;8.00;4.60;;;;;;;16.51;34.58;93918.47;5032320;28;20452;-61
2022/04/07 03:11:33;;;;;;;7.33;4.60;;;;;;;16.50;34.42;93932.75;5032062;28;20443;-62
2022/04/07 03:14:00;;;;;;;7.60;4.50;;;;;;;16.50;33.73;93938.06;5032789;28;20454;-61
2022/04/07 03:16:27;;;;;;;10.30;4.90;;;;;;;16.36;34.59;93932.16;5031829;28;20471;-61
2022/04/07 03:18:53;;;;;;;5.40;4.33;;;;;;;16.48;34.11;93928.88;5031210;28;20428;-62
2022/04/07 03:21:20;;;;;;;7.80;4.40;;;;;;;16.25;34.58;93930.91;5031751;28;20482;-62
2022/04/07 03:23:47;;;;;;;8.70;4.70;;;;;;;16.40;34.79;93930.44;5032428;28;20458;-62
2022/04/07 03:26:14;;;;;;;6.73;4.73;;;;;;;16.58;34.95;93923.25;5032458;28;20436;-61
2022/04/07 03:28:41;;;;;;;6.63;4.20;;;;;;;16.25;34.94;93925.63;5032516;28;20918;-61
2022/04/07 03:31:08;;;;;;;13.10;4.87;;;;;;;16.59;34.36;93933.53;5032334;28;20566;-61
2022/04/07 03:33:35;;;;;;;7.93;4.60;;;;;;;16.65;34.44;93924.34;5032095;28;20448;-61
2022/04/07 03:36:03;;;;;;;8.27;4.93;;;;;;;16.50;34.86;93937.28;5031351;28;20501;-62
2022/04/07 03:38:30;;;;;;;7.50;4.40;;;;;;;16.34;34.66;93922.97;5031371;28;20450;-61
2022/04/07 03:40:57;;;;;;;6.47;5.00;;;;;;;16.18;34.96;93912.88;5031350;28;20475;-60
2022/04/07 03:43:23;;;;;;;12.33;4.60;;;;;;;16.19;35.09;93897.81;5032385;28;20447;-60
2022/04/07 03:45:50;;;;;;;12.20;4.70;;;;;;;16.21;35.15;93887.69;5031168;28;20455;-61
2022/04/07 03:48:17;;;;;;;8.70;4.93;;;;;;;15.99;35.71;93888.66;5032524;28;20435;-61
2022/04/07 03:50:44;;;;;;;6.30;5.20;;;;;;;16.12;35.44;93879.00;5031601;28;20443;-63
2022/04/07 03:53:11;;;;;;;12.70;5.33;;;;;;;16.12;35.07;93879.00;5032182;28;20432;-61
2022/04/07 03:55:38;;;;;;;7.10;4.80;;;;;;;16.19;35.31;93880.09;5031853;28;20455;-62
2022/04/07 03:58:05;;;;;;;6.70;4.10;;;;;;;16.27;34.99;93875.09;5032353;28;20483;-61
2022/04/07 04:00:33;;;;;;;7.03;4.80;;;;;;;16.14;35.48;93858.34;5030294;28;20471;-61
2022/04/07 04:03:00;;;;;;;8.57;5.77;;;;;;;16.15;36.02;93857.22;5031608;28;20479;-62
2022/04/07 04:05:27;;;;;;;8.60;6.03;;;;;;;16.04;35.76;93853.38;5031588;28;20432;-61
2022/04/07 04:07:56;;;;;;;11.10;6.17;;;;;;;15.99;36.07;93853.53;5031319;28;20443;-63
2022/04/07 04:10:23;;;;;;;6.80;5.13;;;;;;;15.84;36.78;93854.81;5032261;28;20444;-62
2022/04/07 04:12:50;;;;;;;8.57;4.83;;;;;;;15.82;35.99;93843.00;5033651;28;20444;-63
2022/04/07 04:15:18;;;;;;;6.93;4.50;;;;;;;16.10;35.49;93860.06;5030132;28;20547;-63
2022/04/07 04:17:45;;;;;;;15.60;5.00;;;;;;;15.73;36.75;93881.88;5028601;28;20566;-62
2022/04/07 04:20:12;;;;;;;6.57;4.63;;;;;;;16.34;36.20;93896.53;5029935;28;20553;-61
2022/04/07 04:22:39;;;;;;;11.13;4.87;;;;;;;16.47;35.07;93891.09;5032696;28;20458;-62
2022/04/07 04:25:08;;;;;;;9.47;4.50;;;;;;;16.59;35.42;93882.50;5029981;28;20443;-61
2022/04/07 04:27:34;;;;;;;8.23;4.37;;;;;;;16.70;35.20;93889.78;5031957;28;20472;-62
2022/04/07 04:30:02;;;;;;;11.60;5.27;;;;;;;16.15;36.01;93883.66;5029866;28;20447;-62
2022/04/07 04:32:29;;;;;;;10.37;4.87;;;;;;;16.44;35.34;93888.28;5029936;28;20440;-65
2022/04/07 04:34:56;;;;;;;13.13;5.80;;;;;;;16.19;35.83;93888.03;5030365;28;20444;-61
2022/04/07 04:37:25;;;;;;;9.77;4.83;;;;;;;16.15;36.63;93891.59;5031541;28;20458;-65
2022/04/07 04:39:53;;;;;;;9.63;5.00;;;;;;;16.17;36.36;93902.63;5030488;28;20479;-61
2022/04/07 04:42:20;;;;;;;8.67;4.87;;;;;;;16.43;35.45;93890.16;5037744;28;20518;-61
2022/04/07 04:44:47;;;;;;;10.90;5.20;;;;;;;15.81;36.48;93883.72;5046010;28;20451;-61
2022/04/07 04:47:17;;;;;;;11.33;6.17;;;;;;;16.55;36.25;93882.34;5050593;28;20483;-61
2022/04/07 04:49:44;;;;;;;9.50;6.03;;;;;;;16.75;35.66;93880.91;5050352;28;20449;-61
2022/04/07 04:52:11;;;;;;;12.77;6.80;;;;;;;16.39;35.54;93883.94;5051017;28;20458;-62
2022/04/07 04:54:39;;;;;;;14.83;7.53;;;;;;;16.56;35.81;93877.84;5050165;28;20450;-62
2022/04/07 04:57:07;;;;;;;17.60;8.53;;;;;;;16.39;36.04;93876.00;5050723;28;20454;-61
2022/04/07 04:59:34;;;;;;;87.80;56.97;;;;;;;16.52;36.39;93883.00;5050211;28;20461;-62
2022/04/07 05:02:01;;;;;;;84.63;65.70;;;;;;;16.66;36.87;93898.66;5049920;28;20828;-61
2022/04/07 05:04:28;;;;;;;113.00;83.30;;;;;;;16.60;36.47;93892.00;5050217;28;20484;-64
2022/04/07 05:06:56;;;;;;;21.87;12.10;;;;;;;16.73;36.00;93889.13;5050753;28;20435;-61
2022/04/07 05:09:23;;;;;;;14.10;7.57;;;;;;;16.65;35.80;93882.00;5050079;28;20443;-61
2022/04/07 05:11:50;;;;;;;15.10;8.10;;;;;;;16.72;36.37;93877.00;5049093;28;20450;-61
2022/04/07 05:14:16;;;;;;;10.97;7.27;;;;;;;16.95;35.22;93874.88;5050532;28;20434;-63
2022/04/07 05:16:43;;;;;;;24.10;8.23;;;;;;;16.84;35.25;93873.69;5050629;28;20510;-62
2022/04/07 05:19:10;;;;;;;14.53;5.83;;;;;;;16.16;35.71;93886.00;5034062;28;20542;-62
2022/04/07 05:21:37;;;;;;;12.33;6.27;;;;;;;16.79;36.50;93874.63;5028943;28;20487;-64
2022/04/07 05:24:04;;;;;;;83.23;59.10;;;;;;;16.96;35.17;93861.34;5029223;28;20450;-60
2022/04/07 05:26:31;;;;;;;96.70;78.60;;;;;;;16.78;35.24;93849.28;5028823;28;20440;-63
2022/04/07 05:28:58;;;;;;;16.63;6.83;;;;;;;17.05;34.49;93864.72;5036216;28;20451;-61
2022/04/07 05:31:25;;;;;;;11.77;6.27;;;;;;;17.08;34.60;93864.06;5028432;28;20463;-60
2022/04/07 05:33:52;;;;;;;13.33;6.37;;;;;;;17.44;33.86;93854.81;5028944;28;20494;-59
2022/04/07 05:36:19;;;;;;;13.73;6.60;;;;;;;17.34;34.03;93852.53;5026566;28;21044;-60
2022/04/07 05:38:45;;;;;;;10.20;6.87;;;;;;;17.03;34.46;93864.25;5029856;28;20588;-61
2022/04/07 05:41:12;;;;;;;11.63;7.30;;;;;;;16.77;34.41;93874.19;5028667;28;20502;-60
2022/04/07 05:43:39;;;;;;;12.17;6.67;;;;;;;17.06;34.17;93860.94;5028711;28;20515;-62
2022/04/07 05:46:06;;;;;;;15.47;7.23;;;;;;;17.38;33.73;93851.56;5027711;28;20448;-61
2022/04/07 05:48:33;;;;;;;12.77;7.17;;;;;;;16.64;34.96;93848.72;5026828;28;20444;-62
2022/04/07 05:51:01;;;;;;;11.50;7.23;;;;;;;16.85;33.77;93848.78;5025956;28;20838;-62
2022/04/07 05:53:28;;;;;;;16.33;7.20;;;;;;;16.80;34.85;93843.69;5027393;28;20859;-61
2022/04/07 05:55:59;;;;;;;13.60;7.40;;;;;;;16.96;34.55;93837.53;5027830;28;20477;-60
2022/04/07 05:58:26;;;;;;;17.27;7.87;;;;;;;17.09;33.94;93831.22;5029293;28;20519;-61
2022/04/07 06:00:53;;;;;;;20.07;10.03;;;;;;;16.88;34.46;93822.47;5028500;28;20538;-61
2022/04/07 06:03:20;;;;;;;20.77;9.53;;;;;;;16.85;34.92;93815.16;5029508;28;20439;-63
2022/04/07 06:05:52;;;;;;;17.03;8.13;;;;;;;17.19;36.55;93808.88;5028602;28;20440;-62
2022/04/07 06:08:20;;;;;;;15.83;8.37;;;;;;;17.28;34.17;93808.81;5028949;28;20456;-62
2022/04/07 06:10:47;;;;;;;13.60;8.47;;;;;;;17.36;34.22;93797.38;5028619;28;20973;-63
2022/04/07 06:13:15;;;;;;;21.83;8.20;;;;;;;17.42;33.58;93802.19;5029039;28;20436;-63
2022/04/07 06:15:42;;;;;;;15.13;9.07;;;;;;;17.43;33.90;93792.34;5028730;28;20478;-62
2022/04/07 06:18:09;;;;;;;20.40;8.37;;;;;;;17.58;33.38;93791.78;5029561;28;20523;-62
2022/04/07 06:20:37;;;;;;;12.73;7.47;;;;;;;17.56;33.42;93799.28;5028803;28;20476;-60
2022/04/07 06:23:04;;;;;;;13.90;6.77;;;;;;;17.69;33.54;93795.59;5029135;28;20559;-61
2022/04/07 06:25:31;;;;;;;16.93;7.77;;;;;;;17.79;33.35;93800.50;5028610;28;20462;-61
2022/04/07 06:28:02;;;;;;;14.67;7.57;;;;;;;17.84;33.10;93794.97;5028926;28;20444;-61
2022/04/07 06:30:30;;;;;;;14.83;7.70;;;;;;;17.70;33.38;93795.25;5029124;28;20444;-59
2022/04/07 06:32:57;;;;;;;14.47;7.20;;;;;;;17.74;34.22;93803.31;5028928;28;20434;-60
2022/04/07 06:35:23;;;;;;;14.43;6.40;;;;;;;17.57;33.35;93788.34;5028648;28;20439;-60
2022/04/07 06:37:54;;;;;;;12.03;6.73;;;;;;;17.66;33.63;93790.94;5029165;28;20954;-61
2022/04/07 06:40:23;;;;;;;9.60;6.30;;;;;;;17.52;33.30;93782.47;5028223;28;20554;-62
2022/04/07 06:42:50;;;;;;;15.53;6.53;;;;;;;17.26;33.78;93792.50;5032127;28;20451;-62
2022/04/07 06:45:24;;;;;;;20.37;6.67;;;;;;;17.22;34.64;93782.53;5032432;28;20428;-61
2022/04/07 06:47:51;;;;;;;15.60;6.47;;;;;;;17.23;34.31;93792.03;5033118;28;20858;-61
2022/04/07 06:50:19;;;;;;;11.53;6.10;;;;;;;17.34;34.61;93789.75;5032776;28;20501;-61
2022/04/07 06:52:46;;;;;;;10.47;5.53;;;;;;;17.25;34.14;93804.94;5032680;28;20460;-61
2022/04/07 06:55:15;;;;;;;9.63;6.03;;;;;;;17.34;34.59;93791.63;5032420;28;20443;-61
2022/04/07 06:57:53;;;;;;;10.10;6.37;;;;;;;17.55;34.43;93792.44;5032403;28;20446;-64
2022/04/07 07:00:22;;;;;;;10.50;5.77;;;;;;;17.64;33.75;93791.28;5032421;28;20475;-61
2022/04/07 07:02:54;;;;;;;13.47;6.13;;;;;;;17.59;33.20;93791.44;5032576;28;20440;-61
2022/04/07 07:05:22;;;;;;;11.40;5.97;;;;;;;17.55;33.47;93787.16;5032596;28;20570;-62
2022/04/07 07:07:50;;;;;;;8.70;5.67;;;;;;;17.65;33.04;93782.22;5032896;28;20515;-61
2022/04/07 07:10:20;;;;;;;9.50;6.00;;;;;;;17.76;33.51;93795.81;5031927;28;21005;-62
2022/04/07 07:12:48;;;;;;;20.93;6.47;;;;;;;17.66;33.21;93745.91;5031980;28;20452;-61
2022/04/07 07:15:15;;;;;;;10.60;6.17;;;;;;;17.20;33.40;93803.28;5031721;28;20977;-62
2022/04/07 07:17:43;;;;;;;14.30;6.10;;;;;;;17.05;33.52;93732.38;5032415;28;20882;-61
2022/04/07 07:20:11;;;;;;;16.30;5.87;;;;;;;17.42;34.06;93793.44;5032437;28;20451;-62
2022/04/07 07:22:39;;;;;;;9.63;5.73;;;;;;;17.39;33.53;93762.34;5032536;28;20472;-60
2022/04/07 07:25:07;;;;;;;10.17;7.60;;;;;;;17.73;33.27;93767.34;5031753;28;20791;-61
2022/04/07 07:27:45;;;;;;;12.07;6.33;;;;;;;17.19;33.87;93787.69;5032375;28;20768;-61
2022/04/07 07:30:15;;;;;;;19.93;7.10;;;;;;;17.79;33.21;93763.41;5032138;28;20451;-63
2022/04/07 07:32:47;;;;;;;12.30;6.93;;;;;;;18.13;33.30;93773.63;5032562;28;20451;-61
2022/04/07 07:35:17;;;;;;;12.10;6.43;;;;;;;18.30;32.59;93759.41;5031623;28;20443;-61
2022/04/07 07:37:52;;;;;;;11.30;6.37;;;;;;;18.18;33.10;93773.41;5032221;28;20466;-61
2022/04/07 07:40:22;;;;;;;9.97;5.93;;;;;;;18.39;32.22;93752.91;5031662;28;20816;-61
2022/04/07 07:42:54;;;;;;;19.63;6.23;;;;;;;18.57;32.26;93742.88;5032035;28;20534;-62
2022/04/07 07:45:22;;;;;;;9.40;5.57;;;;;;;18.43;32.18;93753.78;5031581;28;20946;-61
2022/04/07 07:48:09;;;;;;;10.77;6.00;;;;;;;18.34;32.82;93729.22;5031590;28;20521;-61
2022/04/07 07:50:45;;;;;;;12.07;6.33;;;;;;;18.17;32.65;93732.84;5031520;28;20443;-61
2022/04/07 07:53:17;;;;;;;12.37;7.00;;;;;;;18.32;33.48;93720.81;5031553;28;21121;-61
2022/04/07 07:55:44;;;;;;;7.87;5.73;;;;;;;18.12;33.47;93716.41;5031667;28;20444;-61
2022/04/07 07:58:11;;;;;;;12.73;6.00;;;;;;;17.92;34.48;93739.22;5031635;28;20436;-62
2022/04/07 08:00:38;;;;;;;10.83;5.90;;;;;;;17.85;33.84;93722.31;5030897;28;20463;-61
2022/04/07 08:03:05;;;;;;;12.80;6.17;;;;;;;18.10;32.94;93723.94;5031237;28;20443;-60
2022/04/07 08:05:33;;;;;;;9.93;6.23;;;;;;;18.19;32.91;93700.75;5030971;28;20424;-62
2022/04/07 08:08:00;;;;;;;10.93;6.00;;;;;;;18.18;33.47;93709.78;5031404;28;20442;-62
2022/04/07 08:10:27;;;;;;;10.13;6.53;;;;;;;18.20;33.29;93707.56;5031417;28;20451;-62
2022/04/07 08:12:54;;;;;;;12.17;6.23;;;;;;;18.45;32.95;93708.41;5031607;28;20988;-62
2022/04/07 08:15:23;;;;;;;9.03;5.87;;;;;;;18.64;32.82;93701.41;5030873;28;20467;-62
2022/04/07 08:17:50;;;;;;;16.03;6.30;;;;;;;18.31;33.34;93687.47;5031348;28;20578;-61
2022/04/07 08:20:18;;;;;;;10.67;6.50;;;;;;;18.42;33.02;93699.22;5031005;28;21001;-61
2022/04/07 08:22:44;;;;;;;11.53;5.63;;;;;;;18.03;32.92;93692.66;5031276;28;20455;-60
2022/04/07 08:25:11;;;;;;;11.53;6.20;;;;;;;18.39;32.91;93691.91;5030449;28;20448;-61
2022/04/07 08:27:38;;;;;;;9.33;5.50;;;;;;;18.93;31.55;93681.78;5031343;28;20448;-61
2022/04/07 08:30:06;;;;;;;14.90;7.33;;;;;;;19.04;31.72;93656.28;5030537;28;20996;-62
2022/04/07 08:32:33;;;;;;;15.40;6.70;;;;;;;19.09;31.86;93656.81;5030726;28;20502;-61
2022/04/07 08:35:01;;;;;;;13.40;6.10;;;;;;;18.95;31.76;93658.31;5030606;28;20450;-61
2022/04/07 08:37:29;;;;;;;13.03;5.83;;;;;;;19.08;31.48;93644.69;5030579;28;20938;-61
2022/04/07 08:39:55;;;;;;;13.30;6.00;;;;;;;19.35;31.58;93660.94;5030330;28;20432;-61
2022/04/07 08:42:26;;;;;;;12.57;6.83;;;;;;;19.44;30.57;93651.72;5030307;28;20560;-62
2022/04/07 08:44:54;;;;;;;10.53;6.20;;;;;;;19.30;31.10;93653.22;5031229;28;21000;-61
2022/04/07 08:47:21;;;;;;;10.40;6.30;;;;;;;19.42;31.08;93637.22;5030864;28;20527;-63
2022/04/07 08:49:50;;;;;;;9.73;5.60;;;;;;;19.26;31.59;93658.44;5030426;28;20440;-61
2022/04/07 08:52:18;;;;;;;6.03;5.17;;;;;;;19.23;30.98;93654.56;5030089;28;20641;-60
2022/04/07 08:54:46;;;;;;;11.40;5.17;;;;;;;19.19;30.79;93644.97;5030155;28;20440;-62
2022/04/07 08:57:14;;;;;;;13.47;5.43;;;;;;;19.08;31.53;93650.00;5030316;28;20447;-61
2022/04/07 08:59:43;;;;;;;12.73;6.07;;;;;;;19.49;31.41;93634.78;5030431;28;20799;-61
2022/04/07 09:02:10;;;;;;;9.50;5.67;;;;;;;19.61;31.09;93640.00;5030270;28;20570;-61
2022/04/07 09:04:39;;;;;;;15.47;5.60;;;;;;;19.66;31.18;93634.44;5029284;28;20462;-61
2022/04/07 09:07:07;;;;;;;9.77;5.40;;;;;;;19.93;30.73;93621.06;5030356;28;20436;-62
2022/04/07 09:09:38;;;;;;;8.70;5.50;;;;;;;20.07;30.48;93633.94;5029693;28;20448;-61
2022/04/07 09:12:05;;;;;;;21.17;7.07;;;;;;;19.99;30.84;93642.84;5030277;28;21000;-62
2022/04/07 09:14:37;;;;;;;10.97;5.50;;;;;;;19.16;31.37;93656.25;5029643;28;20505;-62
2022/04/07 09:17:05;;;;;;;8.27;4.97;;;;;;;18.79;31.58;93650.31;5030031;28;20482;-61
2022/04/07 09:19:34;;;;;;;10.30;5.60;;;;;;;18.96;31.44;93655.31;5049434;28;20455;-61
2022/04/07 09:22:13;;;;;;;13.57;6.23;;;;;;;18.94;31.10;93646.91;5049283;28;20995;-61
2022/04/07 09:24:42;;;;;;;9.33;5.20;;;;;;;18.85;31.83;93659.56;5049235;28;20457;-62
2022/04/07 09:27:10;;;;;;;11.57;5.77;;;;;;;18.72;33.79;93652.72;5049994;28;20415;-61
2022/04/07 09:29:43;;;;;;;12.17;6.30;;;;;;;18.55;34.22;93665.47;5049433;28;20446;-61
2022/04/07 09:32:21;;;;;;;9.47;5.93;;;;;;;18.36;34.25;93676.63;5049904;28;20445;-61
2022/04/07 09:34:55;;;;;;;10.63;6.77;;;;;;;18.36;34.42;93684.59;5049361;28;20454;-61
2022/04/07 09:37:23;;;;;;;14.00;8.30;;;;;;;18.67;34.43;93679.50;5049191;28;21050;-63
2022/04/07 09:40:01;;;;;;;9.13;7.47;;;;;;;18.52;34.16;93685.47;5049139;28;20443;-61
2022/04/07 09:42:33;;;;;;;13.40;7.07;;;;;;;18.26;33.59;93679.75;5049489;28;20942;-61
2022/04/07 09:45:01;;;;;;;13.83;6.77;;;;;;;18.42;33.64;93672.69;5049178;28;20435;-62
2022/04/07 09:47:41;;;;;;;15.23;6.43;;;;;;;18.20;33.27;93675.75;5049063;28;20443;-61
2022/04/07 09:50:20;;;;;;;17.07;7.40;;;;;;;18.29;33.66;93687.03;5048597;28;20475;-60
2022/04/07 09:53:03;;;;;;;11.60;7.70;;;;;;;18.18;34.69;93691.22;5048910;28;20445;-61
2022/04/07 09:55:41;;;;;;;15.10;8.50;;;;;;;18.58;33.93;93688.69;5049193;28;20463;-62
2022/04/07 09:58:11;;;;;;;14.27;7.90;;;;;;;18.39;33.51;93704.38;5049339;28;20439;-62
2022/04/07 10:00:39;;;;;;;9.83;6.00;;;;;;;18.25;33.58;93720.59;5048712;28;20447;-60
2022/04/07 10:03:08;;;;;;;14.50;5.03;;;;;;;16.47;35.10;93694.63;5049125;28;20474;-62
2022/04/07 10:05:37;;;;;;;16.77;6.10;;;;;;;16.52;36.50;93712.97;5051005;28;20447;-64
2022/04/07 10:08:06;;;;;;;17.90;6.83;;;;;;;16.88;39.26;93721.91;5049125;28;20419;-62
2022/04/07 10:10:35;;;;;;;14.57;5.57;;;;;;;16.19;39.28;93736.59;5048772;28;20530;-60
2022/04/07 10:13:03;;;;;;;16.97;5.50;;;;;;;15.84;41.30;93719.31;5049635;28;20427;-61
2022/04/07 10:15:31;;;;;;;13.77;4.90;;;;;;;15.38;44.08;93732.44;5047991;28;20443;-62
2022/04/07 10:18:04;;;;;;;24.80;5.30;;;;;;;14.46;46.30;93709.91;5048478;28;20474;-61
2022/04/07 10:20:35;;;;;;;20.27;5.70;;;;;;;14.71;46.78;93722.34;5048255;28;20929;-61
2022/04/07 10:23:30;;;;;;;23.70;6.40;;;;;;;15.02;46.29;93722.22;5048725;28;20478;-59
2022/04/07 10:25:58;;;;;;;21.53;6.10;;;;;;;15.04;47.77;93726.09;5048557;28;20529;-60
2022/04/07 10:28:25;;;;;;;14.27;6.60;;;;;;;14.79;48.93;93726.09;5049203;28;20560;-60
2022/04/07 10:30:54;;;;;;;24.83;9.13;;;;;;;15.21;50.71;93722.69;5048107;28;20435;-59
2022/04/07 10:33:42;;;;;;;19.23;9.53;;;;;;;15.41;48.87;93721.28;5048607;28;20470;-62
2022/04/07 10:36:15;;;;;;;26.50;10.60;;;;;;;15.68;48.97;93715.63;5048088;28;20435;-61
2022/04/07 10:38:44;;;;;;;27.00;10.90;;;;;;;15.43;51.12;93716.47;5048756;28;20439;-61
2022/04/07 10:41:11;;;;;;;26.97;12.27;;;;;;;16.00;50.41;93707.16;5047418;28;20481;-60
2022/04/07 10:43:40;;;;;;;23.03;12.20;;;;;;;16.32;48.58;93695.16;5048707;28;20459;-61
2022/04/07 10:46:18;;;;;;;20.50;12.80;;;;;;;16.51;48.48;93706.16;5048329;28;20772;-60
2022/04/07 10:48:50;;;;;;;20.27;11.77;;;;;;;16.77;48.53;93699.59;5048882;28;20643;-60
2022/04/07 10:51:18;;;;;;;17.80;13.17;;;;;;;16.36;50.52;93688.16;5048613;28;20481;-61
2022/04/07 10:53:51;;;;;;;22.10;12.33;;;;;;;16.41;49.36;93688.75;5048735;28;20445;-59
2022/04/07 10:56:24;;;;;;;24.13;11.87;;;;;;;16.51;49.19;93685.78;5048127;28;20427;-60
2022/04/07 10:58:54;;;;;;;23.97;15.03;;;;;;;16.74;49.22;93673.78;5049308;28;20455;-61
2022/04/07 11:01:31;;;;;;;16.10;11.23;;;;;;;16.78;48.51;93674.69;5047891;28;20515;-60
2022/04/07 11:04:17;;;;;;;21.33;11.17;;;;;;;16.80;49.46;93669.84;5049118;28;20545;-60
2022/04/07 11:07:02;;;;;;;19.57;11.23;;;;;;;16.90;49.38;93661.53;5048876;28;20446;-60
2022/04/07 11:09:55;;;;;;;15.47;10.30;;;;;;;17.13;47.97;93654.78;5048032;28;20454;-61
2022/04/07 11:12:29;;;;;;;19.07;11.80;;;;;;;17.09;49.35;93659.19;5048284;28;20435;-61
2022/04/07 11:15:02;;;;;;;20.70;12.03;;;;;;;17.47;47.95;93658.19;5048215;28;20526;-60
2022/04/07 11:17:41;;;;;;;15.77;10.20;;;;;;;17.72;47.10;93665.09;5048237;28;20497;-60
2022/04/07 11:20:21;;;;;;;14.60;10.20;;;;;;;17.93;46.99;93665.81;5048261;28;20529;-61
2022/04/07 11:23:08;;;;;;;16.80;9.73;;;;;;;17.76;46.40;93666.00;5048286;28;20489;-61
2022/04/07 11:25:40;;;;;;;16.97;9.67;;;;;;;18.10;45.72;93658.41;5048036;28;20443;-61
2022/04/07 11:28:17;;;;;;;16.57;9.77;;;;;;;17.85;46.17;93667.44;5051100;28;20478;-60
2022/04/07 11:30:46;;;;;;;13.07;9.30;;;;;;;18.13;45.51;93659.63;5051903;28;20817;-60
2022/04/07 11:33:28;;;;;;;13.60;10.93;;;;;;;18.02;45.54;93669.13;5051674;28;20501;-61
2022/04/07 11:36:04;;;;;;;15.03;9.93;;;;;;;17.60;46.36;93675.69;5051775;28;20482;-60